createdAt,value
2019-05-03T00:01:16.148Z,11.69
2019-05-03T00:02:37.608Z,11.61
2019-05-03T00:03:42.522Z,11.61
2019-05-03T00:04:48.067Z,11.62
2019-05-03T00:06:08.066Z,11.58
2019-05-03T00:07:11.913Z,11.54
2019-05-03T00:08:15.571Z,11.54
2019-05-03T00:09:19.992Z,11.44
2019-05-03T00:10:23.948Z,11.43
2019-05-03T00:11:27.576Z,11.42
2019-05-03T00:12:32.758Z,11.38
2019-05-03T00:13:36.533Z,11.38
2019-05-03T00:14:41.808Z,11.35
2019-05-03T00:15:47.071Z,11.34
2019-05-03T00:16:52.225Z,11.31
2019-05-03T00:17:55.990Z,11.34
2019-05-03T00:19:01.558Z,11.33
2019-05-03T00:20:06.742Z,11.33
2019-05-03T00:21:11.670Z,11.35
2019-05-03T00:22:15.574Z,11.35
2019-05-03T00:23:19.206Z,11.34
2019-05-03T00:24:22.877Z,11.31
2019-05-03T00:25:26.526Z,11.29
2019-05-03T00:26:31.843Z,11.26
2019-05-03T00:27:35.573Z,11.26
2019-05-03T00:28:39.216Z,11.24
2019-05-03T00:29:42.882Z,11.16
2019-05-03T00:30:46.528Z,11.22
2019-05-03T00:31:51.651Z,11.22
2019-05-03T00:32:55.752Z,11.22
2019-05-03T00:34:02.259Z,11.25
2019-05-03T00:35:12.073Z,11.25
2019-05-03T00:36:23.572Z,11.25
2019-05-03T00:37:28.849Z,11.24
2019-05-03T00:38:32.613Z,11.19
2019-05-03T00:39:38.326Z,11.22
2019-05-03T00:40:41.982Z,11.20
2019-05-03T00:41:45.621Z,11.20
2019-05-03T00:42:49.264Z,11.20
2019-05-03T00:43:52.983Z,11.20
2019-05-03T00:44:56.683Z,11.17
2019-05-03T00:46:02.013Z,11.17
2019-05-03T00:47:05.768Z,11.23
2019-05-03T00:48:09.411Z,11.18
2019-05-03T00:49:13.432Z,11.16
2019-05-03T00:50:17.094Z,11.16
2019-05-03T00:51:22.550Z,11.08
2019-05-03T00:52:26.150Z,11.10
2019-05-03T00:53:31.608Z,11.10
2019-05-03T00:54:35.144Z,11.08
2019-05-03T00:55:38.790Z,11.08
2019-05-03T00:56:44.426Z,11.02
2019-05-03T00:57:47.823Z,10.95
2019-05-03T00:58:53.200Z,10.89
2019-05-03T00:59:57.008Z,10.91
2019-05-03T01:01:02.589Z,10.85
2019-05-03T01:02:06.157Z,10.89
2019-05-03T01:03:09.805Z,10.83
2019-05-03T01:04:13.441Z,10.83
2019-05-03T01:05:19.134Z,10.77
2019-05-03T01:06:22.778Z,10.77
2019-05-03T01:07:26.436Z,10.74
2019-05-03T01:08:30.088Z,10.54
2019-05-03T01:09:33.896Z,10.50
2019-05-03T01:10:37.546Z,10.50
2019-05-03T01:11:41.821Z,10.51
2019-05-03T01:12:45.551Z,10.58
2019-05-03T01:13:49.186Z,10.61
2019-05-03T01:14:54.124Z,10.61
2019-05-03T01:15:59.344Z,10.65
2019-05-03T01:17:02.976Z,10.65
2019-05-03T01:18:08.328Z,10.62
2019-05-03T01:19:12.119Z,10.67
2019-05-03T01:20:15.871Z,10.67
2019-05-03T01:21:19.556Z,10.67
2019-05-03T01:22:23.214Z,10.68
2019-05-03T01:23:26.871Z,10.65
2019-05-03T01:24:32.307Z,10.43
2019-05-03T01:25:36.073Z,10.25
2019-05-03T01:26:41.942Z,10.25
2019-05-03T01:27:45.502Z,9.90
2019-05-03T01:28:49.199Z,9.90
2019-05-03T01:29:52.827Z,9.82
2019-05-03T01:30:58.934Z,9.77
2019-05-03T01:32:02.566Z,9.71
2019-05-03T01:33:06.195Z,9.67
2019-05-03T01:34:09.916Z,9.50
2019-05-03T01:35:13.538Z,9.26
2019-05-03T01:36:17.607Z,9.26
2019-05-03T01:37:22.683Z,9.16
2019-05-03T01:38:26.449Z,9.16
2019-05-03T01:39:31.660Z,9.07
2019-05-03T01:40:35.441Z,8.95
2019-05-03T01:41:39.092Z,8.95
2019-05-03T01:42:42.748Z,9.05
2019-05-03T01:43:46.372Z,9.13
2019-05-03T01:44:52.078Z,9.19
2019-05-03T01:45:55.482Z,9.26
2019-05-03T01:47:02.295Z,9.05
2019-05-03T01:48:07.673Z,8.85
2019-05-03T01:49:12.921Z,8.66
2019-05-03T01:50:33.166Z,8.50
2019-05-03T01:51:47.515Z,8.49
2019-05-03T01:52:52.800Z,8.48
2019-05-03T01:53:56.534Z,8.52
2019-05-03T01:55:00.246Z,8.50
2019-05-03T01:56:03.917Z,8.44
2019-05-03T01:57:07.980Z,8.33
2019-05-03T01:58:12.490Z,8.19
2019-05-03T01:59:16.251Z,8.05
2019-05-03T02:00:24.756Z,8.10
2019-05-03T02:01:46.244Z,8.24
2019-05-03T02:02:52.499Z,8.36
2019-05-03T02:03:57.863Z,8.48
2019-05-03T02:05:15.961Z,8.49
2019-05-03T02:06:19.649Z,8.49
2019-05-03T02:07:23.266Z,8.47
2019-05-03T02:08:26.914Z,8.39
2019-05-03T02:09:32.235Z,8.33
2019-05-03T02:10:36.067Z,8.29
2019-05-03T02:11:39.690Z,8.28
2019-05-03T02:12:43.350Z,8.31
2019-05-03T02:13:47.006Z,8.32
2019-05-03T02:14:51.653Z,8.30
2019-05-03T02:15:55.450Z,8.27
2019-05-03T02:16:59.252Z,8.23
2019-05-03T02:18:02.944Z,8.32
2019-05-03T02:19:06.890Z,8.44
2019-05-03T02:20:12.441Z,8.56
2019-05-03T02:21:16.070Z,8.65
2019-05-03T02:22:19.698Z,8.69
2019-05-03T02:23:23.356Z,8.62
2019-05-03T02:24:27.428Z,8.60
2019-05-03T02:25:32.365Z,8.57
2019-05-03T02:26:36.539Z,8.58
2019-05-03T02:27:42.038Z,8.50
2019-05-03T02:28:45.596Z,8.42
2019-05-03T02:29:49.523Z,8.41
2019-05-03T02:30:53.603Z,8.34
2019-05-03T02:31:57.305Z,8.29
2019-05-03T02:33:04.048Z,8.30
2019-05-03T02:34:06.713Z,8.18
2019-05-03T02:35:10.404Z,8.13
2019-05-03T02:36:14.343Z,8.18
2019-05-03T02:37:18.022Z,8.29
2019-05-03T02:38:23.573Z,8.38
2019-05-03T02:39:27.277Z,8.43
2019-05-03T02:40:33.585Z,8.49
2019-05-03T02:41:36.609Z,8.32
2019-05-03T02:42:40.608Z,8.24
2019-05-03T02:43:45.898Z,8.21
2019-05-03T02:44:49.563Z,8.16
2019-05-03T02:46:16.461Z,8.17
2019-05-03T02:47:20.649Z,8.14
2019-05-03T02:48:36.423Z,8.02
2019-05-03T02:49:45.554Z,7.88
2019-05-03T02:50:49.445Z,7.87
2019-05-03T02:51:55.238Z,7.93
2019-05-03T02:52:58.458Z,7.94
2019-05-03T02:54:02.108Z,7.92
2019-05-03T02:55:08.317Z,7.99
2019-05-03T02:56:21.029Z,8.06
2019-05-03T02:57:17.407Z,8.13
2019-05-03T02:58:21.136Z,8.20
2019-05-03T02:59:26.453Z,8.21
2019-05-03T03:01:01.468Z,8.12
2019-05-03T03:02:06.389Z,8.06
2019-05-03T03:03:10.988Z,7.80
2019-05-03T03:04:15.801Z,7.68
2019-05-03T03:05:20.158Z,7.57
2019-05-03T03:06:26.821Z,7.47
2019-05-03T03:07:31.825Z,7.43
2019-05-03T03:08:37.081Z,7.46
2019-05-03T03:09:41.827Z,7.45
2019-05-03T03:10:46.066Z,7.43
2019-05-03T03:11:51.115Z,7.34
2019-05-03T03:12:58.014Z,7.45
2019-05-03T03:14:05.838Z,7.57
2019-05-03T03:15:09.715Z,7.69
2019-05-03T03:16:15.210Z,7.78
2019-05-03T03:17:20.954Z,7.82
2019-05-03T03:18:25.524Z,7.73
2019-05-03T03:19:30.635Z,7.68
2019-05-03T03:20:37.277Z,7.68
2019-05-03T03:21:46.604Z,7.68
2019-05-03T03:22:55.414Z,7.64
2019-05-03T03:24:16.600Z,7.60
2019-05-03T03:25:25.761Z,7.59
2019-05-03T03:26:37.651Z,7.60
2019-05-03T03:27:38.594Z,7.56
2019-05-03T03:28:46.259Z,7.51
2019-05-03T03:29:55.163Z,7.50
2019-05-03T03:31:27.837Z,7.55
2019-05-03T03:32:32.219Z,7.65
2019-05-03T03:33:40.272Z,7.79
2019-05-03T03:34:55.433Z,7.86
2019-05-03T03:36:01.060Z,7.90
2019-05-03T03:37:06.416Z,7.75
2019-05-03T03:38:07.176Z,7.70
2019-05-03T03:39:10.865Z,7.71
2019-05-03T03:40:16.200Z,7.69
2019-05-03T03:41:21.051Z,7.65
2019-05-03T03:42:25.203Z,7.60
2019-05-03T03:43:30.964Z,7.56
2019-05-03T03:44:36.445Z,7.47
2019-05-03T03:45:41.180Z,7.49
2019-05-03T03:46:46.211Z,7.40
2019-05-03T03:47:55.809Z,7.27
2019-05-03T03:48:58.630Z,7.19
2019-05-03T03:50:05.903Z,7.29
2019-05-03T03:51:12.157Z,7.40
2019-05-03T03:52:17.264Z,7.51
2019-05-03T03:53:23.066Z,7.66
2019-05-03T03:54:28.120Z,7.74
2019-05-03T03:55:35.424Z,7.61
2019-05-03T03:56:54.508Z,7.59
2019-05-03T03:57:46.817Z,7.52
2019-05-03T03:58:52.100Z,7.43
2019-05-03T03:59:56.481Z,7.35
2019-05-03T04:01:00.246Z,7.38
2019-05-03T04:02:05.957Z,7.40
2019-05-03T04:03:10.299Z,7.42
2019-05-03T04:04:16.017Z,7.45
2019-05-03T04:05:19.957Z,7.52
2019-05-03T04:06:26.833Z,7.54
2019-05-03T04:07:31.491Z,7.52
2019-05-03T04:08:36.422Z,7.63
2019-05-03T04:09:40.556Z,7.65
2019-05-03T04:10:46.373Z,7.55
2019-05-03T04:11:49.965Z,7.42
2019-05-03T04:12:55.974Z,7.40
2019-05-03T04:13:59.027Z,7.39
2019-05-03T04:15:17.021Z,7.35
2019-05-03T04:16:22.513Z,7.28
2019-05-03T04:17:45.668Z,7.29
2019-05-03T04:18:55.124Z,7.32
2019-05-03T04:19:59.773Z,7.45
2019-05-03T04:21:05.496Z,7.55
2019-05-03T04:22:08.873Z,7.58
2019-05-03T04:23:16.015Z,7.57
2019-05-03T04:24:18.086Z,7.56
2019-05-03T04:25:22.330Z,7.54
2019-05-03T04:26:29.788Z,7.52
2019-05-03T04:27:31.912Z,7.54
2019-05-03T04:28:36.277Z,7.53
2019-05-03T04:29:40.091Z,7.60
2019-05-03T04:30:45.996Z,7.65
2019-05-03T04:31:49.307Z,7.67
2019-05-03T04:32:56.187Z,7.61
2019-05-03T04:33:58.308Z,7.55
2019-05-03T04:35:02.000Z,7.57
2019-05-03T04:36:05.967Z,7.64
2019-05-03T04:37:12.390Z,7.56
2019-05-03T04:38:17.866Z,7.56
2019-05-03T04:39:21.623Z,7.58
2019-05-03T04:40:26.134Z,7.58
2019-05-03T04:41:30.131Z,7.62
2019-05-03T04:42:35.705Z,7.65
2019-05-03T04:43:39.210Z,7.64
2019-05-03T04:44:45.375Z,7.69
2019-05-03T04:45:51.254Z,7.65
2019-05-03T04:46:58.274Z,7.59
2019-05-03T04:48:05.730Z,7.63
2019-05-03T04:49:08.233Z,7.65
2019-05-03T04:50:11.973Z,7.67
2019-05-03T04:51:16.635Z,7.75
2019-05-03T04:52:20.477Z,7.82
2019-05-03T04:53:26.011Z,7.82
2019-05-03T04:54:31.050Z,7.78
2019-05-03T04:55:36.395Z,7.71
2019-05-03T04:56:40.283Z,7.68
2019-05-03T04:57:46.766Z,7.65
2019-05-03T04:58:49.596Z,7.73
2019-05-03T04:59:55.852Z,7.88
2019-05-03T05:00:59.160Z,8.11
2019-05-03T05:02:02.843Z,8.21
2019-05-03T05:03:06.519Z,8.26
2019-05-03T05:04:10.192Z,8.23
2019-05-03T05:05:15.367Z,8.19
2019-05-03T05:06:19.222Z,8.18
2019-05-03T05:07:25.732Z,8.14
2019-05-03T05:08:28.366Z,8.04
2019-05-03T05:09:31.992Z,8.10
2019-05-03T05:10:36.393Z,8.25
2019-05-03T05:11:40.264Z,8.36
2019-05-03T05:12:45.710Z,8.28
2019-05-03T05:13:49.327Z,8.24
2019-05-03T05:14:52.980Z,8.30
2019-05-03T05:15:56.613Z,8.30
2019-05-03T05:17:00.705Z,8.37
2019-05-03T05:18:08.916Z,8.48
2019-05-03T05:19:15.180Z,8.49
2019-05-03T05:20:20.675Z,8.44
2019-05-03T05:21:25.953Z,8.40
2019-05-03T05:22:34.955Z,8.44
2019-05-03T05:23:40.381Z,8.55
2019-05-03T05:24:44.986Z,8.63
2019-05-03T05:25:54.991Z,8.64
2019-05-03T05:27:17.018Z,8.66
2019-05-03T05:28:22.322Z,8.70
2019-05-03T05:29:36.596Z,8.73
2019-05-03T05:30:40.316Z,8.75
2019-05-03T05:31:44.653Z,8.71
2019-05-03T05:32:48.393Z,8.61
2019-05-03T05:33:52.051Z,8.49
2019-05-03T05:34:56.137Z,8.57
2019-05-03T05:35:59.877Z,8.66
2019-05-03T05:37:05.289Z,8.66
2019-05-03T05:38:09.119Z,8.72
2019-05-03T05:39:15.244Z,8.74
2019-05-03T05:40:22.099Z,8.77
2019-05-03T05:41:25.745Z,8.75
2019-05-03T05:42:29.380Z,8.78
2019-05-03T05:43:33.325Z,8.84
2019-05-03T05:44:37.003Z,8.98
2019-05-03T05:45:41.105Z,9.13
2019-05-03T05:47:04.593Z,9.18
2019-05-03T05:48:09.788Z,9.20
2019-05-03T05:49:15.091Z,9.11
2019-05-03T05:50:25.361Z,9.10
2019-05-03T05:51:29.250Z,9.20
2019-05-03T05:52:34.609Z,9.24
2019-05-03T05:53:38.321Z,9.24
2019-05-03T05:54:45.486Z,9.26
2019-05-03T05:56:06.566Z,9.26
2019-05-03T05:57:30.080Z,9.29
2019-05-03T05:58:41.393Z,9.32
2019-05-03T05:59:46.703Z,9.37
2019-05-03T06:01:08.353Z,9.41
2019-05-03T06:02:12.057Z,9.51
2019-05-03T06:03:15.770Z,9.64
2019-05-03T06:04:19.424Z,9.73
2019-05-03T06:05:25.151Z,9.79
2019-05-03T06:06:34.837Z,9.85
2019-05-03T06:07:40.247Z,9.95
2019-05-03T06:08:51.752Z,10.04
2019-05-03T06:10:14.678Z,10.12
2019-05-03T06:11:31.355Z,10.26
2019-05-03T06:12:42.398Z,10.49
2019-05-03T06:13:48.092Z,10.77
2019-05-03T06:14:54.451Z,10.90
2019-05-03T06:16:15.480Z,11.02
2019-05-03T06:17:20.950Z,11.14
2019-05-03T06:18:29.184Z,11.25
2019-05-03T06:19:34.658Z,11.30
2019-05-03T06:20:42.715Z,11.24
2019-05-03T06:21:54.871Z,11.24
2019-05-03T06:23:05.873Z,11.43
2019-05-03T06:24:11.193Z,11.43
2019-05-03T06:25:26.561Z,11.41
2019-05-03T06:26:41.277Z,11.50
2019-05-03T06:27:45.007Z,11.61
2019-05-03T06:28:48.655Z,11.85
2019-05-03T06:29:55.636Z,12.00
2019-05-03T06:31:14.857Z,12.13
2019-05-03T06:32:29.484Z,12.13
2019-05-03T06:33:34.746Z,12.36
2019-05-03T06:34:38.510Z,12.36
2019-05-03T06:35:42.250Z,12.42
2019-05-03T06:36:47.922Z,12.51
2019-05-03T06:37:54.546Z,12.76
2019-05-03T06:38:58.601Z,12.76
2019-05-03T06:40:05.808Z,12.90
2019-05-03T06:41:07.656Z,13.07
2019-05-03T06:42:16.046Z,13.22
2019-05-03T06:43:16.826Z,13.34
2019-05-03T06:44:24.839Z,13.46
2019-05-03T06:45:26.357Z,13.54
2019-05-03T06:46:46.700Z,13.67
2019-05-03T06:47:50.463Z,13.76
2019-05-03T06:48:54.363Z,13.83
2019-05-03T06:49:58.373Z,13.79
2019-05-03T06:51:08.822Z,13.85
2019-05-03T06:52:07.462Z,13.96
2019-05-03T06:53:12.973Z,14.09
2019-05-03T06:54:20.766Z,14.21
2019-05-03T06:55:22.036Z,14.36
2019-05-03T06:56:29.072Z,14.59
2019-05-03T06:57:31.148Z,14.81
2019-05-03T06:58:36.428Z,14.99
2019-05-03T06:59:41.997Z,15.22
2019-05-03T07:01:04.668Z,15.40
2019-05-03T07:02:28.542Z,15.53
2019-05-03T07:03:45.844Z,15.63
2019-05-03T07:04:56.953Z,15.66
2019-05-03T07:06:18.722Z,15.76
2019-05-03T07:07:28.064Z,15.91
2019-05-03T07:08:47.266Z,15.92
2019-05-03T07:10:07.715Z,15.94
2019-05-03T07:11:11.390Z,16.01
2019-05-03T07:12:15.017Z,16.20
2019-05-03T07:13:18.763Z,16.46
2019-05-03T07:14:24.570Z,16.44
2019-05-03T07:15:28.028Z,16.43
2019-05-03T07:16:31.788Z,16.75
2019-05-03T07:17:35.468Z,16.89
2019-05-03T07:18:39.101Z,16.77
2019-05-03T07:19:42.747Z,16.65
2019-05-03T07:20:56.490Z,16.91
2019-05-03T07:21:59.796Z,17.16
2019-05-03T07:23:04.363Z,17.38
2019-05-03T07:24:08.192Z,17.66
2019-05-03T07:25:11.956Z,17.78
2019-05-03T07:26:15.910Z,17.79
2019-05-03T07:27:19.553Z,17.85
2019-05-03T07:28:24.823Z,18.09
2019-05-03T07:29:28.707Z,18.36
2019-05-03T07:30:35.108Z,18.58
2019-05-03T07:31:37.829Z,18.79
2019-05-03T07:32:44.848Z,18.84
2019-05-03T07:33:48.649Z,18.85
2019-05-03T07:34:52.287Z,19.00
2019-05-03T07:35:56.085Z,19.06
2019-05-03T07:36:59.782Z,19.04
2019-05-03T07:38:05.350Z,18.95
2019-05-03T07:39:09.175Z,18.83
2019-05-03T07:40:14.820Z,18.84
2019-05-03T07:41:18.764Z,18.87
2019-05-03T07:42:22.415Z,19.20
2019-05-03T07:43:26.077Z,19.24
2019-05-03T07:44:29.710Z,19.27
2019-05-03T07:45:35.390Z,19.55
2019-05-03T07:46:38.859Z,19.92
2019-05-03T07:47:42.551Z,20.17
2019-05-03T07:48:46.243Z,20.15
2019-05-03T07:49:49.896Z,20.16
2019-05-03T07:50:54.671Z,20.15
2019-05-03T07:51:58.482Z,20.29
2019-05-03T07:53:02.246Z,20.35
2019-05-03T07:54:06.344Z,20.33
2019-05-03T07:55:09.978Z,20.56
2019-05-03T07:56:15.451Z,20.69
2019-05-03T07:57:25.515Z,20.72
2019-05-03T07:58:30.580Z,21.00
2019-05-03T07:59:35.575Z,21.28
2019-05-03T08:00:39.421Z,21.20
2019-05-03T08:01:45.614Z,21.09
2019-05-03T08:02:49.467Z,21.39
2019-05-03T08:03:55.051Z,21.63
2019-05-03T08:04:58.537Z,21.73
2019-05-03T08:06:04.980Z,21.83
2019-05-03T08:07:19.960Z,21.75
2019-05-03T08:08:15.117Z,21.77
2019-05-03T08:09:18.917Z,21.72
2019-05-03T08:10:22.622Z,21.57
2019-05-03T08:11:26.325Z,21.75
2019-05-03T08:12:31.273Z,21.92
2019-05-03T08:13:35.559Z,21.90
2019-05-03T08:14:39.450Z,21.82
2019-05-03T08:15:45.086Z,21.96
2019-05-03T08:16:48.537Z,22.13
2019-05-03T08:17:52.108Z,22.20
2019-05-03T08:18:56.059Z,22.36
2019-05-03T08:19:59.865Z,22.75
2019-05-03T08:21:05.608Z,22.99
2019-05-03T08:22:11.140Z,23.36
2019-05-03T08:23:26.325Z,23.59
2019-05-03T08:24:22.477Z,23.67
2019-05-03T08:25:26.447Z,23.81
2019-05-03T08:26:30.099Z,23.77
2019-05-03T08:27:35.418Z,23.69
2019-05-03T08:28:40.716Z,23.90
2019-05-03T08:29:45.398Z,24.02
2019-05-03T08:31:08.872Z,24.07
2019-05-03T08:32:19.937Z,24.08
2019-05-03T08:33:35.418Z,24.32
2019-05-03T08:34:46.150Z,24.47
2019-05-03T08:35:51.162Z,24.75
2019-05-03T08:36:59.139Z,25.02
2019-05-03T08:38:04.955Z,25.43
2019-05-03T08:39:09.925Z,25.71
2019-05-03T08:40:15.579Z,25.61
2019-05-03T08:41:20.995Z,25.40
2019-05-03T08:42:25.630Z,25.56
2019-05-03T08:43:29.258Z,25.37
2019-05-03T08:44:35.190Z,25.39
2019-05-03T08:45:38.266Z,25.79
2019-05-03T08:46:42.134Z,26.35
2019-05-03T08:47:45.768Z,26.77
2019-05-03T08:48:49.757Z,26.93
2019-05-03T08:49:55.466Z,27.15
2019-05-03T08:50:58.756Z,27.36
2019-05-03T08:52:02.545Z,27.35
2019-05-03T08:53:07.364Z,27.65
2019-05-03T08:54:11.071Z,27.94
2019-05-03T08:55:15.877Z,27.93
2019-05-03T08:56:19.773Z,27.94
2019-05-03T08:57:25.414Z,28.26
2019-05-03T08:58:28.997Z,28.52
2019-05-03T08:59:32.959Z,28.47
2019-05-03T09:00:38.779Z,28.10
2019-05-03T09:01:42.530Z,28.40
2019-05-03T09:02:46.333Z,28.37
2019-05-03T09:03:49.919Z,28.80
2019-05-03T09:04:54.650Z,29.03
2019-05-03T09:05:58.755Z,29.08
2019-05-03T09:07:05.312Z,29.27
2019-05-03T09:08:09.150Z,29.34
2019-05-03T09:09:25.444Z,29.32
2019-05-03T09:10:35.561Z,29.23
2019-05-03T09:11:39.323Z,29.35
2019-05-03T09:12:56.283Z,29.76
2019-05-03T09:14:05.507Z,29.75
2019-05-03T09:15:09.349Z,29.79
2019-05-03T09:16:14.730Z,30.24
2019-05-03T09:17:18.366Z,30.55
2019-05-03T09:18:22.110Z,30.53
2019-05-03T09:19:25.963Z,30.16
2019-05-03T09:20:32.263Z,30.25
2019-05-03T09:21:34.960Z,30.74
2019-05-03T09:22:38.680Z,31.23
2019-05-03T09:23:42.328Z,31.39
2019-05-03T09:24:46.085Z,31.64
2019-05-03T09:25:49.720Z,31.92
2019-05-03T09:26:55.407Z,31.68
2019-05-03T09:27:59.094Z,31.24
2019-05-03T09:29:05.557Z,30.95
2019-05-03T09:30:09.679Z,31.21
2019-05-03T09:31:15.720Z,31.43
2019-05-03T09:32:19.914Z,31.42
2019-05-03T09:33:24.870Z,31.72
2019-05-03T09:34:28.840Z,31.62
2019-05-03T09:35:33.782Z,30.93
2019-05-03T09:36:38.080Z,30.52
2019-05-03T09:37:41.709Z,30.60
2019-05-03T09:38:45.909Z,30.89
2019-05-03T09:39:49.679Z,31.02
2019-05-03T09:40:54.590Z,31.09
2019-05-03T09:41:58.854Z,30.61
2019-05-03T09:43:04.343Z,30.39
2019-05-03T09:44:07.893Z,29.87
2019-05-03T09:45:12.021Z,29.34
2019-05-03T09:46:16.136Z,29.47
2019-05-03T09:47:19.853Z,29.79
2019-05-03T09:48:25.451Z,30.07
2019-05-03T09:49:29.081Z,30.09
2019-05-03T09:50:32.734Z,30.14
2019-05-03T09:51:36.431Z,30.21
2019-05-03T09:52:40.059Z,30.22
2019-05-03T09:53:45.337Z,29.89
2019-05-03T09:54:50.676Z,30.05
2019-05-03T09:55:55.511Z,30.27
2019-05-03T09:57:00.021Z,30.40
2019-05-03T09:58:05.497Z,30.55
2019-05-03T09:59:09.314Z,30.64
2019-05-03T10:00:16.107Z,30.68
2019-05-03T10:01:19.322Z,30.46
2019-05-03T10:02:24.759Z,30.14
2019-05-03T10:03:31.139Z,29.77
2019-05-03T10:04:36.597Z,29.86
2019-05-03T10:05:40.119Z,30.10
2019-05-03T10:06:45.197Z,30.25
2019-05-03T10:07:49.106Z,30.49
2019-05-03T10:08:52.818Z,30.81
2019-05-03T10:09:56.825Z,30.98
2019-05-03T10:11:15.133Z,30.89
2019-05-03T10:12:19.809Z,30.94
2019-05-03T10:13:27.112Z,30.58
2019-05-03T10:14:30.127Z,30.56
2019-05-03T10:15:38.095Z,30.25
2019-05-03T10:16:44.852Z,30.05
2019-05-03T10:17:50.254Z,29.73
2019-05-03T10:18:55.280Z,29.72
2019-05-03T10:19:59.041Z,29.91
2019-05-03T10:21:05.134Z,30.07
2019-05-03T10:22:08.181Z,30.13
2019-05-03T10:23:16.217Z,30.26
2019-05-03T10:24:19.895Z,30.50
2019-05-03T10:25:24.828Z,30.52
2019-05-03T10:26:28.632Z,30.62
2019-05-03T10:27:43.123Z,30.63
2019-05-03T10:28:46.818Z,30.72
2019-05-03T10:29:50.480Z,30.89
2019-05-03T10:30:54.732Z,30.80
2019-05-03T10:32:09.598Z,30.62
2019-05-03T10:33:15.614Z,30.53
2019-05-03T10:34:19.346Z,30.14
2019-05-03T10:35:24.583Z,30.35
2019-05-03T10:36:28.453Z,30.41
2019-05-03T10:37:32.941Z,30.47
2019-05-03T10:38:37.233Z,30.67
2019-05-03T10:39:41.062Z,30.90
2019-05-03T10:40:45.347Z,31.22
2019-05-03T10:41:49.122Z,31.43
2019-05-03T10:42:52.756Z,31.52
2019-05-03T10:43:56.430Z,31.64
2019-05-03T10:45:00.138Z,31.62
2019-05-03T10:46:05.121Z,31.63
2019-05-03T10:47:08.933Z,31.65
2019-05-03T10:48:12.665Z,31.72
2019-05-03T10:49:16.447Z,31.64
2019-05-03T10:50:20.966Z,31.71
2019-05-03T10:51:26.297Z,31.73
2019-05-03T10:52:31.621Z,31.74
2019-05-03T10:53:36.899Z,31.59
2019-05-03T10:54:40.646Z,31.37
2019-05-03T10:55:45.906Z,31.46
2019-05-03T10:56:51.243Z,31.69
2019-05-03T10:58:05.649Z,32.00
2019-05-03T10:59:11.153Z,31.81
2019-05-03T11:00:41.716Z,31.81
2019-05-03T11:01:40.280Z,31.87
2019-05-03T11:02:48.535Z,32.17
2019-05-03T11:03:52.168Z,32.44
2019-05-03T11:04:55.966Z,32.61
2019-05-03T11:05:59.667Z,32.70
2019-05-03T11:07:05.310Z,32.96
2019-05-03T11:08:08.893Z,33.10
2019-05-03T11:09:15.171Z,33.33
2019-05-03T11:10:19.303Z,33.52
2019-05-03T11:11:22.951Z,33.77
2019-05-03T11:12:27.219Z,33.93
2019-05-03T11:13:30.929Z,33.92
2019-05-03T11:14:35.144Z,33.93
2019-05-03T11:15:38.887Z,33.70
2019-05-03T11:16:42.518Z,33.67
2019-05-03T11:17:46.172Z,33.72
2019-05-03T11:18:49.876Z,33.96
2019-05-03T11:19:54.727Z,34.27
2019-05-03T11:20:58.343Z,34.10
2019-05-03T11:22:02.021Z,33.54
2019-05-03T11:23:07.765Z,33.64
2019-05-03T11:24:11.428Z,33.93
2019-05-03T11:25:15.150Z,34.28
2019-05-03T11:26:19.312Z,34.53
2019-05-03T11:27:24.880Z,34.83
2019-05-03T11:28:28.582Z,34.92
2019-05-03T11:29:32.420Z,34.67
2019-05-03T11:30:36.070Z,34.40
2019-05-03T11:31:57.995Z,34.22
2019-05-03T11:33:05.922Z,34.05
2019-05-03T11:34:11.564Z,34.53
2019-05-03T11:35:31.875Z,34.82
2019-05-03T11:36:54.808Z,35.16
2019-05-03T11:38:02.656Z,35.26
2019-05-03T11:39:08.089Z,35.09
2019-05-03T11:40:12.193Z,35.32
2019-05-03T11:41:28.832Z,35.20
2019-05-03T11:42:21.410Z,35.23
2019-05-03T11:43:25.035Z,35.19
2019-05-03T11:44:40.772Z,34.58
2019-05-03T11:45:44.950Z,34.66
2019-05-03T11:46:48.747Z,34.77
2019-05-03T11:47:52.393Z,35.02
2019-05-03T11:48:56.054Z,35.14
2019-05-03T11:49:59.854Z,35.21
2019-05-03T11:51:03.479Z,34.98
2019-05-03T11:52:07.758Z,34.80
2019-05-03T11:53:11.390Z,34.66
2019-05-03T11:54:16.551Z,34.58
2019-05-03T11:55:20.406Z,34.15
2019-05-03T11:56:24.968Z,33.97
2019-05-03T11:57:28.847Z,33.86
2019-05-03T11:58:34.255Z,33.60
2019-05-03T11:59:38.006Z,33.24
2019-05-03T12:00:41.735Z,32.76
2019-05-03T12:01:51.677Z,32.49
2019-05-03T12:02:56.971Z,32.29
2019-05-03T12:04:00.669Z,32.13
2019-05-03T12:05:15.661Z,31.84
2019-05-03T12:06:19.351Z,31.74
2019-05-03T12:07:38.891Z,31.70
2019-05-03T12:08:37.761Z,31.61
2019-05-03T12:09:41.403Z,31.37
2019-05-03T12:10:55.227Z,31.19
2019-05-03T12:11:55.495Z,31.23
2019-05-03T12:13:05.060Z,31.28
2019-05-03T12:14:12.595Z,31.25
2019-05-03T12:15:16.811Z,31.35
2019-05-03T12:16:32.698Z,31.44
2019-05-03T12:17:29.758Z,31.38
2019-05-03T12:18:47.822Z,31.19
2019-05-03T12:19:39.724Z,31.20
2019-05-03T12:20:46.526Z,30.85
2019-05-03T12:21:49.872Z,30.68
2019-05-03T12:22:54.543Z,30.48
2019-05-03T12:23:59.586Z,30.37
2019-05-03T12:25:09.757Z,30.39
2019-05-03T12:26:12.927Z,30.45
2019-05-03T12:27:15.073Z,30.51
2019-05-03T12:28:18.776Z,30.46
2019-05-03T12:29:24.735Z,30.26
2019-05-03T12:30:28.447Z,30.08
2019-05-03T12:31:39.966Z,30.08
2019-05-03T12:32:37.614Z,29.87
2019-05-03T12:33:41.415Z,29.81
2019-05-03T12:34:45.048Z,29.76
2019-05-03T12:35:48.695Z,29.73
2019-05-03T12:36:52.373Z,29.66
2019-05-03T12:37:56.075Z,29.61
2019-05-03T12:38:59.876Z,29.60
2019-05-03T12:40:05.510Z,29.71
2019-05-03T12:41:09.412Z,29.93
2019-05-03T12:42:14.838Z,30.04
2019-05-03T12:43:18.518Z,30.25
2019-05-03T12:44:22.220Z,30.43
2019-05-03T12:45:25.847Z,30.59
2019-05-03T12:46:29.480Z,30.71
2019-05-03T12:47:34.669Z,30.58
2019-05-03T12:48:38.547Z,30.39
2019-05-03T12:49:42.270Z,30.52
2019-05-03T12:50:47.011Z,30.65
2019-05-03T12:51:50.961Z,30.54
2019-05-03T12:52:55.491Z,30.25
2019-05-03T12:53:59.429Z,30.20
2019-05-03T12:55:04.539Z,30.15
2019-05-03T12:56:12.342Z,29.95
2019-05-03T12:57:15.497Z,29.78
2019-05-03T12:58:19.358Z,29.61
2019-05-03T12:59:36.683Z,29.53
2019-05-03T13:00:42.109Z,29.61
2019-05-03T13:01:47.391Z,29.71
2019-05-03T13:03:04.687Z,29.75
2019-05-03T13:04:09.948Z,29.82
2019-05-03T13:05:15.447Z,29.75
2019-05-03T13:06:18.994Z,29.65
2019-05-03T13:07:28.548Z,29.69
2019-05-03T13:08:40.579Z,29.63
2019-05-03T13:09:45.337Z,29.41
2019-05-03T13:10:49.135Z,29.21
2019-05-03T13:11:58.351Z,29.20
2019-05-03T13:12:59.699Z,29.16
2019-05-03T13:14:04.789Z,28.96
2019-05-03T13:15:09.572Z,29.03
2019-05-03T13:16:15.362Z,29.22
2019-05-03T13:17:21.040Z,28.99
2019-05-03T13:18:25.266Z,29.01
2019-05-03T13:19:29.090Z,29.13
2019-05-03T13:20:32.748Z,29.35
2019-05-03T13:21:36.400Z,29.39
2019-05-03T13:22:41.070Z,29.42
2019-05-03T13:23:45.343Z,29.35
2019-05-03T13:24:49.138Z,29.29
2019-05-03T13:25:52.765Z,29.14
2019-05-03T13:26:56.401Z,29.08
2019-05-03T13:28:00.208Z,28.97
2019-05-03T13:29:05.903Z,28.96
2019-05-03T13:30:10.460Z,28.80
2019-05-03T13:31:16.136Z,28.71
2019-05-03T13:32:19.559Z,28.61
2019-05-03T13:33:23.276Z,28.67
2019-05-03T13:34:26.926Z,28.73
2019-05-03T13:35:30.553Z,28.77
2019-05-03T13:36:36.568Z,28.60
2019-05-03T13:37:40.221Z,28.57
2019-05-03T13:38:45.241Z,28.50
2019-05-03T13:39:49.011Z,28.54
2019-05-03T13:40:54.359Z,28.58
2019-05-03T13:41:58.063Z,28.56
2019-05-03T13:43:05.908Z,28.52
2019-05-03T13:44:07.276Z,28.42
2019-05-03T13:45:10.917Z,28.25
2019-05-03T13:46:15.662Z,28.19
2019-05-03T13:47:19.414Z,28.13
2019-05-03T13:48:24.229Z,28.00
2019-05-03T13:49:28.608Z,27.68
2019-05-03T13:50:32.306Z,27.67
2019-05-03T13:51:35.979Z,27.69
2019-05-03T13:52:39.691Z,27.66
2019-05-03T13:53:43.325Z,27.73
2019-05-03T13:54:47.844Z,27.88
2019-05-03T13:55:51.603Z,27.82
2019-05-03T13:56:55.371Z,27.77
2019-05-03T13:57:59.075Z,27.87
2019-05-03T13:59:04.610Z,27.87
2019-05-03T14:00:08.257Z,27.87
2019-05-03T14:01:11.902Z,27.87
2019-05-03T14:02:19.159Z,27.76
2019-05-03T14:03:20.944Z,27.72
2019-05-03T14:04:24.579Z,27.65
2019-05-03T14:05:28.261Z,27.65
2019-05-03T14:06:33.695Z,27.62
2019-05-03T14:07:37.296Z,27.65
2019-05-03T14:08:40.954Z,27.62
2019-05-03T14:09:45.270Z,27.56
2019-05-03T14:10:49.495Z,27.49
2019-05-03T14:11:55.314Z,27.45
2019-05-03T14:12:59.078Z,27.26
2019-05-03T14:14:04.577Z,27.18
2019-05-03T14:15:08.504Z,27.15
2019-05-03T14:16:14.315Z,27.08